Latest Weather Observations for Grafton AgRS

IDN60801

Issued at 7:32 pm EDT Wednesday 7 December 2016 (issued every 30 minutes, with the page automatically refreshed every 10 minutes)

About weather observations | Map of weather stations | Latest weather observations for NSW | Other Formats
Station Details ID: 058077 Name: GRAFTON RESEARCH STN Lat: -29.62 Lon: 152.96 Height: 25.0 m
Data from the previous 72 hours. | See also: Recent months for locations in New South Wales
Date/Time
EDT
Temp
°C
App
Temp
°C
Dew
Point
°C
Rel
Hum
%
Delta-T
°C
Wind Press
QNH
hPa
Press
MSL
hPa
Rain since
9am
mm
Dir  Spd
km/h
Gust
km/h
Spd
kts
Gust
kts
07/07:30pm 21.4 23.2 18.2 82 2.0 S 6 7 3 4 - - 1.6
07/07:00pm 21.3 22.2 18.3 83 1.9 SSE 11 15 6 8 - - 1.6
07/06:30pm 21.4 22.6 18.2 82 2.0 SE 9 13 5 7 - - 1.6
07/06:00pm 21.4 22.4 18.6 84 1.8 SE 11 15 6 8 - - 1.6
07/05:30pm 21.3 21.2 18.7 85 1.6 SE 17 24 9 13 - - 1.6
07/05:00pm 21.5 21.3 19.4 88 1.3 SE 19 30 10 16 - - 1.6
07/04:30pm 22.0 21.3 19.4 85 1.7 SSE 22 32 12 17 - - 1.6
07/04:00pm 22.3 22.1 19.8 86 1.6 SE 20 32 11 17 - - 1.4
07/03:30pm 22.0 20.9 19.5 86 1.6 ESE 24 32 13 17 - - 1.2
07/03:00pm 24.8 23.1 19.0 70 3.7 ESE 26 35 14 19 - - 0.0
07/02:30pm 26.5 25.2 19.9 67 4.3 ESE 26 37 14 20 - - 0.0
07/02:00pm 26.8 27.2 20.6 69 4.1 ESE 19 26 10 14 - - 0.0
07/01:30pm 27.5 28.5 21.8 71 3.8 ESE 19 26 10 14 - - 0.0
07/01:00pm 26.6 26.2 20.9 71 3.8 SE 24 30 13 16 - - 0.0
07/12:30pm 26.2 26.5 21.6 76 3.1 ESE 22 32 12 17 - - 0.0
07/12:00pm 25.2 24.6 21.3 79 2.6 ESE 26 32 14 17 - - 0.0
07/11:30am 27.4 30.5 22.1 73 3.6 ESE 9 13 5 7 - - 0.0
07/11:00am 26.9 29.7 22.3 76 3.1 ESE 11 17 6 9 - - 0.0
07/10:30am 26.1 29.5 22.0 78 2.7 ESE 7 13 4 7 - - 0.0
07/10:00am 25.0 29.1 22.3 85 1.8 S 4 7 2 4 - - 0.0
07/09:30am 23.6 26.2 21.9 90 1.1 NNE 11 20 6 11 - - 0.0
07/09:00am 23.4 26.4 22.0 92 0.9 N 9 13 5 7 - - 1.2
07/08:30am 23.1 26.6 21.9 93 0.8 NNW 6 9 3 5 - - 1.2
07/08:00am 22.9 25.9 21.9 94 0.7 N 9 15 5 8 - - 1.2
07/07:30am 22.9 27.2 21.9 94 0.7 NE 2 7 1 4 - - 1.2
07/07:00am 22.5 25.7 21.7 95 0.5 N 7 11 4 6 - - 1.2
07/06:30am 22.6 27.1 21.6 94 0.7 CALM 0 0 0 0 - - 1.2
07/06:00am 22.5 26.7 21.7 95 0.5 NNE 2 7 1 4 - - 1.2
07/05:30am 22.3 25.3 21.3 94 0.7 SSW 7 9 4 5 - - 1.0
07/05:00am 22.5 26.8 21.1 92 0.9 CALM 0 0 0 0 - - 1.0
07/04:30am 22.9 25.4 21.0 89 1.2 NNE 9 15 5 8 - - 0.6
07/04:00am 23.4 25.3 21.3 88 1.4 NW 13 17 7 9 - - 0.0
07/03:30am 23.0 24.5 21.3 90 1.1 WSW 15 19 8 10 - - 0.0
07/03:00am 23.1 25.2 21.0 88 1.4 W 11 13 6 7 - - 0.0
07/02:30am 23.1 25.5 20.8 87 1.5 SW 9 15 5 8 - - 0.0
07/02:00am 23.2 23.7 20.9 87 1.5 W 19 28 10 15 - - 0.0
07/01:30am 22.9 25.2 20.6 87 1.5 WNW 9 11 5 6 - - 0.0
07/01:00am 23.3 25.9 20.4 84 1.9 WSW 7 17 4 9 - - 0.0
07/12:30am 23.1 24.9 20.4 85 1.8 SSW 11 15 6 8 - - 0.0
07/12:00am 22.8 25.2 20.9 89 1.2 S 9 11 5 6 - - 0.0
 
Date/Time
EDT
Temp
°C
App
Temp
°C
Dew
Point
°C
Rel
Hum
%
Delta-T
°C
Wind Press
QNH
hPa
Press
MSL
hPa
Rain since
9am
mm
Dir  Spd
km/h
Gust
km/h
Spd
kts
Gust
kts
06/11:30pm 22.9 24.5 20.8 88 1.4 SSE 13 17 7 9 - - 0.0
06/11:00pm 23.1 24.8 21.0 88 1.4 SE 13 17 7 9 - - 0.0
06/10:30pm 22.8 25.1 20.7 88 1.4 SE 9 11 5 6 - - 0.0
06/10:00pm 23.5 26.2 20.6 84 1.9 ESE 7 11 4 6 - - 0.0
06/09:30pm 23.9 26.8 20.6 82 2.2 NE 6 11 3 6 - - 0.0
06/09:00pm 24.1 25.7 20.8 82 2.2 ESE 13 20 7 11 - - 0.0
06/08:30pm 24.8 26.4 20.7 78 2.7 ENE 13 24 7 13 - - 0.0
06/08:00pm 26.2 27.3 20.5 71 3.7 E 15 17 8 9 - - 0.0
06/07:30pm 27.0 28.9 21.3 71 3.8 E 13 19 7 10 - - 0.0
06/07:00pm 29.1 30.0 20.8 61 5.5 ESE 17 28 9 15 - - 0.0
06/06:30pm 32.4 33.5 21.9 54 7.1 ESE 19 32 10 17 - - 0.0
06/06:00pm 34.0 37.6 22.4 50 8.0 WNW 7 15 4 8 - - 0.0
06/05:30pm 34.6 37.8 22.3 48 8.4 NW 9 15 5 8 - - 0.0
06/05:00pm 35.1 37.4 21.4 45 9.3 NW 11 15 6 8 - - 0.0
06/04:30pm 35.1 37.8 22.1 47 8.9 NW 11 17 6 9 - - 0.0
06/04:00pm 35.6 38.0 22.2 46 9.2 NW 13 22 7 12 - - 0.0
06/03:30pm 35.5 37.1 22.1 45 9.2 NW 17 24 9 13 - - 0.0
06/03:00pm 34.5 35.9 21.9 48 8.6 NW 17 24 9 13 - - 0.0
06/02:30pm 34.5 36.1 22.9 51 8.0 NNW 19 28 10 15 - - 0.0
06/02:00pm 33.7 35.3 22.1 50 7.9 NNW 17 26 9 14 - - 0.0
06/01:30pm 33.2 34.4 21.4 50 8.0 NW 17 26 9 14 - - 0.0
06/01:00pm 32.8 34.6 22.6 55 7.0 NW 17 28 9 15 - - 0.0
06/12:30pm 31.0 31.1 20.0 52 7.3 NW 19 28 10 15 - - 0.0
06/12:00pm 30.8 31.9 21.3 57 6.4 NNW 17 30 9 16 - - 0.0
06/11:30am 29.0 29.3 20.7 61 5.5 NW 20 30 11 16 - - 0.0
06/11:00am 29.1 29.4 20.5 59 5.7 NW 19 30 10 16 - - 0.0
06/10:30am 29.1 29.4 20.8 61 5.5 NW 20 35 11 19 - - 0.0
06/10:00am 29.1 31.8 23.5 72 3.9 NW 15 22 8 12 - - 0.0
06/09:30am 26.6 28.1 22.0 76 3.1 NW 17 26 9 14 - - 0.0
06/09:00am 26.9 28.7 22.5 77 3.0 WNW 17 24 9 13 - - 11.4
06/08:30am 25.0 26.3 21.7 82 2.2 WNW 17 26 9 14 - - 11.4
06/08:00am 24.4 25.8 21.9 86 1.7 WNW 17 22 9 12 - - 11.4
06/07:30am 24.5 26.5 21.6 84 1.9 WNW 13 20 7 11 - - 11.4
06/07:00am 23.7 25.5 21.2 86 1.6 NW 13 19 7 10 - - 11.4
06/06:30am 23.0 25.8 21.5 91 1.0 NNW 9 15 5 8 - - 11.4
06/06:00am 22.6 25.7 21.4 93 0.8 WNW 7 15 4 8 - - 11.4
06/05:30am 22.2 25.9 21.4 95 0.5 NNW 4 11 2 6 - - 11.4
06/05:00am 21.8 24.3 21.1 96 0.5 WNW 9 15 5 8 - - 11.4
06/04:30am 21.7 24.3 21.2 97 0.3 NW 9 15 5 8 - - 11.4
06/04:00am 21.6 25.0 20.9 96 0.5 SW 4 11 2 6 - - 11.4
06/03:30am 21.8 25.3 21.1 96 0.5 NW 4 11 2 6 - - 11.2
06/03:00am 21.6 24.0 20.8 95 0.5 WNW 9 15 5 8 - - 11.2
06/02:30am 21.8 24.0 21.1 96 0.5 NE 11 20 6 11 - - 11.2
06/02:00am 21.7 21.6 20.7 94 0.6 WNW 22 41 12 22 - - 7.2
06/01:30am 21.9 25.2 20.7 93 0.8 N 4 9 2 5 - - 5.6
06/01:00am 21.9 22.6 20.4 91 1.0 SE 17 22 9 12 - - 5.4
06/12:30am 22.0 22.9 20.8 93 0.8 SE 17 33 9 18 - - 5.4
06/12:06am 22.9 22.0 21.4 91 1.0 SE 28 54 15 29 - - 5.4
06/12:00am 23.0 23.8 21.8 93 0.8 SE 20 30 11 16 - - 5.4
 
Date/Time
EDT
Temp
°C
App
Temp
°C
Dew
Point
°C
Rel
Hum
%
Delta-T
°C
Wind Press
QNH
hPa
Press
MSL
hPa
Rain since
9am
mm
Dir  Spd
km/h
Gust
km/h
Spd
kts
Gust
kts
05/11:37pm 24.1 23.4 21.8 87 1.5 SW 28 46 15 25 - - 2.2
05/11:30pm 23.6 23.3 21.1 86 1.6 SSW 24 32 13 17 - - 2.2
05/11:00pm 24.0 25.4 21.1 84 1.9 SE 15 28 8 15 - - 2.2
05/10:30pm 24.5 24.8 21.6 84 1.9 ESE 22 39 12 21 - - 2.2
05/10:00pm 24.9 27.0 22.4 86 1.7 ESE 15 30 8 16 - - 2.2
05/09:30pm 24.6 26.9 22.8 90 1.2 S 15 20 8 11 - - 1.8
05/09:00pm 24.8 29.8 22.5 87 1.5 CALM 0 0 0 0 - - 1.8
05/08:30pm 25.0 29.6 22.5 86 1.7 NNW 2 7 1 4 - - 1.8
05/08:00pm 24.9 28.5 22.4 86 1.7 NW 7 13 4 7 - - 1.8
05/07:30pm 25.1 28.4 22.6 86 1.7 NNE 9 15 5 8 - - 1.8
05/07:00pm 25.5 27.5 23.0 86 1.7 ESE 17 24 9 13 - - 1.8
05/06:30pm 26.3 30.2 23.6 85 1.8 NNE 9 11 5 6 - - 1.0
05/06:00pm 27.0 30.7 22.6 77 3.0 NNE 7 9 4 5 - - 0.6
05/05:30pm 27.6 30.4 23.0 76 3.1 ESE 13 19 7 10 - - 0.4
05/05:00pm 28.9 32.8 22.9 70 4.1 ESE 7 15 4 8 - - 0.0
05/04:30pm 30.8 33.0 21.9 59 6.0 E 13 22 7 12 - - 0.0
05/04:00pm 32.5 34.0 22.0 54 7.1 ENE 17 30 9 16 - - 0.0
05/03:30pm 34.6 36.1 22.0 48 8.6 ENE 17 26 9 14 - - 0.0
05/03:00pm 37.7 40.6 21.8 40 10.9 ENE 9 19 5 10 - - 0.0
05/02:30pm 39.0 41.7 22.1 37 11.7 E 11 15 6 8 - - 0.0
05/02:00pm 38.0 39.8 21.2 37 11.5 NNW 13 19 7 10 - - 0.0
05/01:30pm 37.5 40.7 22.4 41 10.4 NNW 9 15 5 8 - - 0.0
05/01:00pm 36.1 38.5 22.3 45 9.5 N 13 20 7 11 - - 0.0
05/12:30pm 34.6 36.8 22.6 49 8.3 NNW 15 22 8 12 - - 0.0
05/12:00pm 33.7 35.7 21.5 49 8.3 NNW 13 20 7 11 - - 0.0
05/11:30am 32.9 35.8 22.4 54 7.2 N 11 19 6 10 - - 0.0
05/11:00am 32.4 35.7 22.5 56 6.8 NNW 9 17 5 9 - - 0.0
05/10:30am 30.2 32.9 21.3 59 6.0 NNW 9 13 5 7 - - 0.0
05/10:00am 30.8 33.8 21.9 59 6.0 N 9 13 5 7 - - 0.0
05/09:30am 29.7 32.4 22.2 64 5.1 N 11 17 6 9 - - 0.0
05/09:00am 27.6 30.6 21.2 68 4.3 NNE 7 15 4 8 - - 0.0
05/08:30am 26.1 28.8 21.3 75 3.2 NNE 9 15 5 8 - - 0.0
05/08:00am 24.6 27.9 21.5 83 2.1 NNE 6 13 3 7 - - 0.0
05/07:30am 22.1 25.3 20.4 90 1.1 NNE 4 9 2 5 - - 0.0
05/07:00am 20.9 24.0 20.2 96 0.4 NNE 4 7 2 4 - - 0.0
05/06:30am 20.7 23.8 20.2 97 0.3 E 4 6 2 3 - - 0.0
05/06:00am 20.6 24.4 20.1 97 0.3 CALM 0 0 0 0 - - 0.0
05/05:30am 20.8 24.7 20.3 97 0.3 CALM 0 0 0 0 - - 0.0
05/05:00am 20.8 24.3 20.3 97 0.3 WNW 2 7 1 4 - - 0.0
05/04:30am 20.9 24.8 20.4 97 0.3 CALM 0 0 0 0 - - 0.0
05/04:00am 20.7 24.5 20.2 97 0.3 CALM 0 0 0 0 - - 0.0
05/03:30am 20.7 24.5 20.2 97 0.3 CALM 0 0 0 0 - - 0.0
05/03:00am 20.6 24.0 20.1 97 0.3 NNW 2 7 1 4 - - 0.0
05/02:30am 20.7 24.4 20.0 96 0.4 CALM 0 0 0 0 - - 0.0
05/02:00am 20.7 23.2 19.9 95 0.5 WSW 6 7 3 4 - - 0.0
05/01:30am 21.3 25.3 20.5 95 0.5 CALM 0 0 0 0 - - 0.0
05/01:00am 21.2 24.9 20.0 93 0.8 CALM 0 0 0 0 - - 0.0
05/12:30am 21.7 24.9 20.5 93 0.8 SE 4 7 2 4 - - 0.0
05/12:00am 21.9 24.6 20.7 93 0.8 SE 7 9 4 5 - - 0.0
 
Date/Time
EDT
Temp
°C
App
Temp
°C
Dew
Point
°C
Rel
Hum
%
Delta-T
°C
Wind Press
QNH
hPa
Press
MSL
hPa
Rain since
9am
mm
Dir  Spd
km/h
Gust
km/h
Spd
kts
Gust
kts
04/11:30pm 22.2 25.0 20.5 90 1.1 SW 6 7 3 4 - - 0.0
04/11:00pm 22.7 26.8 20.8 89 1.2 CALM 0 0 0 0 - - 0.0
04/10:30pm 23.0 27.1 20.7 87 1.5 CALM 0 0 0 0 - - 0.0
04/10:00pm 23.4 26.1 20.7 85 1.8 SE 7 9 4 5 - - 0.0
04/09:30pm 23.7 26.3 20.4 82 2.1 SE 7 9 4 5 - - 0.0
04/09:00pm 24.7 26.9 20.4 77 2.8 ESE 9 13 5 7 - - 0.0
04/08:30pm 25.4 27.0 20.0 72 3.5 SE 11 15 6 8 - - 0.0
04/08:00pm 26.4 27.7 19.3 65 4.6 ESE 11 13 6 7 - - 0.0

Other Formats:

Comma delimited format used in spreadsheet applications
http://www.bom.gov.au/fwo/IDN60801/IDN60801.95571.axf

JavaScript Object Notation format (JSON) in row-major order
http://www.bom.gov.au/fwo/IDN60801/IDN60801.95571.json